createdAt,value
2022-10-13T00:00:31.812Z,78437.22
2022-10-13T00:03:02.391Z,78435.25
2022-10-13T00:05:30.621Z,78431.25
2022-10-13T00:07:58.079Z,78431.25
2022-10-13T00:10:25.625Z,78431.25
2022-10-13T00:12:52.203Z,78427.28
2022-10-13T00:15:20.183Z,78431.25
2022-10-13T00:17:46.763Z,78431.25
2022-10-13T00:20:13.238Z,78425.28
2022-10-13T00:22:39.868Z,78427.28
2022-10-13T00:25:06.891Z,78427.28
2022-10-13T00:27:33.418Z,78427.28
2022-10-13T00:29:59.971Z,78435.25
2022-10-13T00:32:26.464Z,78433.25
2022-10-13T00:34:53.048Z,78437.22
2022-10-13T00:37:19.520Z,78439.22
2022-10-13T00:39:45.987Z,78435.25
2022-10-13T00:42:13.384Z,78427.28
2022-10-13T00:45:02.821Z,78419.31
2022-10-13T00:47:36.341Z,78407.41
2022-10-13T00:50:04.774Z,78397.47
2022-10-13T00:52:33.093Z,78387.53
2022-10-13T00:55:01.288Z,78353.72
2022-10-13T00:57:27.844Z,78359.69
2022-10-13T00:59:54.904Z,78375.59
2022-10-13T01:02:23.712Z,78367.63
2022-10-13T01:04:51.505Z,78383.53
2022-10-13T01:07:19.081Z,78393.47
2022-10-13T01:09:45.795Z,78399.44
2022-10-13T01:12:39.823Z,78401.44
2022-10-13T01:15:20.475Z,78403.44
2022-10-13T01:17:57.318Z,78405.41
2022-10-13T01:20:49.508Z,78411.38
2022-10-13T01:23:35.001Z,78407.41
2022-10-13T01:26:37.131Z,78403.44
2022-10-13T01:29:18.080Z,78407.41
2022-10-13T01:32:29.003Z,78403.44
2022-10-13T01:35:03.943Z,78403.44
2022-10-13T01:37:39.220Z,78401.44
2022-10-13T01:40:23.755Z,78385.53
2022-10-13T01:43:17.430Z,78369.63
2022-10-13T01:46:20.035Z,78369.63
2022-10-13T01:48:46.588Z,78359.69
2022-10-13T01:51:18.288Z,78351.72
2022-10-13T01:53:47.423Z,78351.72
2022-10-13T01:56:14.542Z,78343.78
2022-10-13T01:58:41.557Z,78339.81
2022-10-13T02:01:14.052Z,78333.84
2022-10-13T02:03:49.788Z,78321.91
2022-10-13T02:06:39.734Z,78302.03
2022-10-13T02:09:20.172Z,78292.09
2022-10-13T02:11:52.629Z,78294.06
2022-10-13T02:14:29.985Z,78284.13
2022-10-13T02:17:00.092Z,78270.22
2022-10-13T02:19:28.783Z,78264.25
2022-10-13T02:21:57.606Z,78284.13
2022-10-13T02:24:24.168Z,78288.09
2022-10-13T02:26:51.953Z,78286.13
2022-10-13T02:29:19.456Z,78300.03
2022-10-13T02:31:46.578Z,78317.94
2022-10-13T02:34:13.997Z,78327.88
2022-10-13T02:36:40.832Z,78327.88
2022-10-13T02:39:09.501Z,78319.91
2022-10-13T02:41:36.906Z,78331.84
2022-10-13T02:44:04.000Z,78335.81
2022-10-13T02:46:30.496Z,78313.94
2022-10-13T02:48:57.175Z,78300.03
2022-10-13T02:51:23.723Z,78294.06
2022-10-13T02:53:50.272Z,78274.19
2022-10-13T02:56:16.810Z,78248.34
2022-10-13T02:58:43.276Z,78258.28
2022-10-13T03:01:14.047Z,78234.44
2022-10-13T03:03:40.641Z,78212.56
2022-10-13T03:06:07.974Z,78220.50
2022-10-13T03:08:36.320Z,78248.34
2022-10-13T03:11:03.302Z,78250.34
2022-10-13T03:13:30.185Z,78262.25
2022-10-13T03:15:56.707Z,78284.13
2022-10-13T03:18:23.224Z,78296.06
2022-10-13T03:21:01.199Z,78304.00
2022-10-13T03:23:27.947Z,78325.88
2022-10-13T03:25:55.301Z,78339.81
2022-10-13T03:28:22.777Z,78345.75
2022-10-13T03:30:49.427Z,78319.91
2022-10-13T03:33:15.989Z,78329.84
2022-10-13T03:35:42.569Z,78327.88
2022-10-13T03:38:09.075Z,78339.81
2022-10-13T03:40:36.903Z,78333.84
2022-10-13T03:43:03.476Z,78333.84
2022-10-13T03:45:31.423Z,78337.81
2022-10-13T03:47:58.324Z,78333.84
2022-10-13T03:50:24.927Z,78331.84
2022-10-13T03:52:51.393Z,78331.84
2022-10-13T03:55:17.973Z,78351.72
2022-10-13T03:57:44.504Z,78345.75
2022-10-13T04:00:11.915Z,78365.66
2022-10-13T04:02:38.456Z,78367.63
2022-10-13T04:05:05.345Z,78367.63
2022-10-13T04:07:32.031Z,78325.88
2022-10-13T04:09:58.487Z,78339.81
2022-10-13T04:12:25.310Z,78349.75
2022-10-13T04:14:52.140Z,78361.66
2022-10-13T04:17:18.701Z,78363.66
2022-10-13T04:19:45.175Z,78369.63
2022-10-13T04:22:11.621Z,78381.56
2022-10-13T04:24:39.233Z,78355.72
2022-10-13T04:27:05.761Z,78371.63
2022-10-13T04:29:32.318Z,78363.66
2022-10-13T04:32:01.855Z,78363.66
2022-10-13T04:34:28.336Z,78363.66
2022-10-13T04:36:54.792Z,78359.69
2022-10-13T04:39:26.324Z,78365.66
2022-10-13T04:41:52.892Z,78331.84
2022-10-13T04:44:19.437Z,78304.00
2022-10-13T04:46:46.083Z,78294.06
2022-10-13T04:49:15.306Z,78268.22
2022-10-13T04:51:41.868Z,78262.25
2022-10-13T04:54:08.406Z,78264.25
2022-10-13T04:56:35.352Z,78248.34
2022-10-13T04:59:02.656Z,78238.41
2022-10-13T05:01:29.176Z,78244.38
2022-10-13T05:03:58.233Z,78240.41
2022-10-13T05:06:27.232Z,78240.41
2022-10-13T05:08:53.804Z,78260.28
2022-10-13T05:11:24.393Z,78242.38
2022-10-13T05:13:50.998Z,78216.53
2022-10-13T05:16:18.617Z,78204.59
2022-10-13T05:18:45.791Z,78226.47
2022-10-13T05:21:26.831Z,78208.59
2022-10-13T05:23:55.901Z,78210.56
2022-10-13T05:26:28.661Z,78186.72
2022-10-13T05:28:59.847Z,78188.69
2022-10-13T05:31:28.535Z,78202.63
2022-10-13T05:33:55.856Z,78214.53
2022-10-13T05:36:34.037Z,78202.63
2022-10-13T05:39:03.247Z,78188.69
2022-10-13T05:41:30.811Z,78164.84
2022-10-13T05:44:17.652Z,78180.75
2022-10-13T05:46:44.659Z,78154.91
2022-10-13T05:49:11.239Z,78156.91
2022-10-13T05:51:47.074Z,78148.94
2022-10-13T05:54:15.906Z,78156.91
2022-10-13T05:56:51.977Z,78139.00
2022-10-13T05:59:26.066Z,78133.03
2022-10-13T06:01:53.988Z,78119.13
2022-10-13T06:04:24.860Z,78133.03
2022-10-13T06:06:52.786Z,78127.06
2022-10-13T06:09:20.759Z,78141.00
2022-10-13T06:11:47.326Z,78125.09
2022-10-13T06:14:15.867Z,78137.00
2022-10-13T06:16:47.362Z,78113.16
2022-10-13T06:19:14.925Z,78115.16
2022-10-13T06:21:41.500Z,78121.09
2022-10-13T06:24:08.121Z,78097.25
2022-10-13T06:26:34.694Z,78077.38
2022-10-13T06:29:04.577Z,78089.28
2022-10-13T06:31:31.205Z,78077.38
2022-10-13T06:33:58.688Z,78073.41
2022-10-13T06:36:25.348Z,78067.44
2022-10-13T06:38:52.010Z,78065.44
2022-10-13T06:41:18.566Z,78075.38
2022-10-13T06:43:45.320Z,78041.59
2022-10-13T06:46:12.778Z,78027.66
2022-10-13T06:48:39.608Z,78011.75
2022-10-13T06:51:09.101Z,78039.59
2022-10-13T06:53:36.031Z,78033.63
2022-10-13T06:56:05.601Z,78029.66
2022-10-13T06:58:32.688Z,78033.63
2022-10-13T07:00:59.278Z,78029.66
2022-10-13T07:03:26.140Z,78021.69
2022-10-13T07:05:52.835Z,78011.75
2022-10-13T07:08:19.855Z,78007.78
2022-10-13T07:10:46.874Z,77991.88
2022-10-13T07:13:13.425Z,77974.00
2022-10-13T07:15:40.801Z,77930.25
2022-10-13T07:18:07.478Z,77930.25
2022-10-13T07:20:34.294Z,77928.28
2022-10-13T07:23:01.189Z,77918.31
2022-10-13T07:25:28.351Z,77910.38
2022-10-13T07:27:54.951Z,77894.47
2022-10-13T07:30:21.919Z,77892.47
2022-10-13T07:32:48.915Z,77854.72
2022-10-13T07:35:15.700Z,77870.63
2022-10-13T07:37:42.183Z,77876.59
2022-10-13T07:40:09.224Z,77858.69
2022-10-13T07:42:35.873Z,77874.59
2022-10-13T07:45:02.348Z,77866.63
2022-10-13T07:47:29.079Z,77854.72
2022-10-13T07:49:55.846Z,77844.78
2022-10-13T07:52:22.971Z,77836.81
2022-10-13T07:54:50.775Z,77836.81
2022-10-13T07:57:17.958Z,77842.78
2022-10-13T07:59:44.639Z,77834.84
2022-10-13T08:02:11.276Z,77828.88
2022-10-13T08:04:38.123Z,77828.88
2022-10-13T08:07:05.938Z,77818.94
2022-10-13T08:09:33.223Z,77803.03
2022-10-13T08:12:00.873Z,77783.16
2022-10-13T08:14:29.233Z,77773.22
2022-10-13T08:16:56.408Z,77765.25
2022-10-13T08:19:23.852Z,77731.47
2022-10-13T08:21:59.694Z,77713.56
2022-10-13T08:24:27.907Z,77685.75
2022-10-13T08:26:55.149Z,77659.91
2022-10-13T08:29:23.405Z,77659.91
2022-10-13T08:31:52.557Z,77665.88
2022-10-13T08:34:19.536Z,77647.97
2022-10-13T08:36:46.221Z,77642.00
2022-10-13T08:39:14.043Z,77616.16
2022-10-13T08:41:50.030Z,77594.31
2022-10-13T08:48:03.249Z,77530.69
2022-10-13T08:50:33.553Z,77498.91
2022-10-13T08:53:02.989Z,77492.94
2022-10-13T08:55:44.352Z,77475.03
2022-10-13T08:58:23.186Z,77457.16
2022-10-13T09:01:06.737Z,77435.28
2022-10-13T09:03:38.797Z,77431.31
2022-10-13T09:06:05.312Z,77431.31
2022-10-13T09:08:59.139Z,77415.41
2022-10-13T09:11:32.383Z,77397.53
2022-10-13T09:14:05.351Z,77379.63
2022-10-13T09:16:41.080Z,77373.66
2022-10-13T09:19:20.010Z,77341.88
2022-10-13T09:21:47.384Z,77339.88
2022-10-13T09:24:17.579Z,77314.03
2022-10-13T09:26:46.309Z,77294.16
2022-10-13T09:29:18.320Z,77232.56
2022-10-13T09:31:45.389Z,77200.75
2022-10-13T09:34:25.229Z,77172.94
2022-10-13T09:37:03.319Z,77163.00
2022-10-13T09:39:31.823Z,77125.22
2022-10-13T09:42:25.963Z,77135.16
2022-10-13T09:45:17.440Z,77135.16
2022-10-13T09:47:59.619Z,77123.25
2022-10-13T09:50:29.594Z,77087.47
2022-10-13T09:53:23.992Z,77107.34
2022-10-13T09:56:26.821Z,77083.50
2022-10-13T09:59:27.519Z,77093.44
2022-10-13T10:01:57.241Z,77091.44
2022-10-13T10:04:35.312Z,77089.44
2022-10-13T10:07:11.795Z,77119.25
2022-10-13T10:09:49.825Z,77131.19
2022-10-13T10:12:22.992Z,77127.22
2022-10-13T10:14:53.460Z,77081.50
2022-10-13T10:17:44.900Z,77063.63
2022-10-13T10:20:38.181Z,77067.59
2022-10-13T10:23:38.057Z,77035.78
2022-10-13T10:26:22.132Z,77019.88
2022-10-13T10:29:16.756Z,77004.00
2022-10-13T10:31:53.597Z,76988.09
2022-10-13T10:34:37.090Z,76972.19
2022-10-13T10:37:29.679Z,76956.28
2022-10-13T10:40:21.780Z,76916.53
2022-10-13T10:42:52.261Z,76918.53
2022-10-13T10:45:24.973Z,76928.47
2022-10-13T10:47:59.261Z,76924.50
2022-10-13T10:50:26.672Z,76908.59
2022-10-13T10:53:02.922Z,76890.72
2022-10-13T10:55:56.359Z,76892.69
2022-10-13T10:58:40.511Z,76878.78
2022-10-13T11:01:33.543Z,76874.81
2022-10-13T11:04:32.364Z,76860.91
2022-10-13T11:07:04.099Z,76847.00
2022-10-13T11:09:42.747Z,76850.97
2022-10-13T11:12:21.922Z,76841.03
2022-10-13T11:15:13.824Z,76847.00
2022-10-13T11:17:41.436Z,76815.19
2022-10-13T11:20:34.109Z,76805.25
2022-10-13T11:23:00.540Z,76789.34
2022-10-13T11:26:19.036Z,76791.34
2022-10-13T11:28:48.172Z,76793.34
2022-10-13T11:31:33.470Z,76787.38
2022-10-13T11:34:02.573Z,76765.50
2022-10-13T11:36:39.392Z,76779.41
2022-10-13T11:39:06.052Z,76765.50
2022-10-13T11:41:55.204Z,76727.75
2022-10-13T11:44:45.947Z,76680.06
2022-10-13T11:47:36.662Z,76644.28
2022-10-13T11:50:06.214Z,76628.38
2022-10-13T11:52:57.011Z,76636.34
2022-10-13T11:55:42.715Z,76618.44
2022-10-13T11:58:17.312Z,76636.34
2022-10-13T12:00:57.449Z,76612.50
2022-10-13T12:04:04.749Z,76602.56
2022-10-13T12:06:34.937Z,76602.56
2022-10-13T12:09:20.451Z,76630.38
2022-10-13T12:11:57.780Z,76622.44
2022-10-13T12:14:33.292Z,76622.44
2022-10-13T12:17:01.517Z,76634.34
2022-10-13T12:19:30.715Z,76634.34
2022-10-13T12:22:12.178Z,76642.28
2022-10-13T12:25:25.503Z,76646.28
2022-10-13T12:27:57.846Z,76668.13
2022-10-13T12:30:27.508Z,76658.19
2022-10-13T12:32:56.591Z,76646.28
2022-10-13T12:35:28.852Z,76654.22
2022-10-13T12:37:57.162Z,76650.25
2022-10-13T12:40:25.004Z,76638.31
2022-10-13T12:42:51.722Z,76638.31
2022-10-13T12:45:21.525Z,76626.41
2022-10-13T12:47:51.269Z,76612.50
2022-10-13T12:50:29.929Z,76618.44
2022-10-13T12:53:06.263Z,76640.31
2022-10-13T12:55:33.110Z,76632.34
2022-10-13T12:58:00.561Z,76612.50
2022-10-13T13:00:29.946Z,76624.41
2022-10-13T13:03:01.842Z,76634.34
2022-10-13T13:05:50.866Z,76640.31
2022-10-13T13:08:29.853Z,76646.28
2022-10-13T13:11:00.246Z,76644.28
2022-10-13T13:13:31.154Z,76644.28
2022-10-13T13:16:18.356Z,76638.31
2022-10-13T13:18:46.852Z,76634.34
2022-10-13T13:21:16.088Z,76634.34
2022-10-13T13:23:50.974Z,76622.44
2022-10-13T13:26:22.793Z,76624.41
2022-10-13T13:28:51.863Z,76622.44
2022-10-13T13:31:21.049Z,76618.44
2022-10-13T13:33:48.357Z,76610.50
2022-10-13T13:36:18.646Z,76604.53
2022-10-13T13:38:45.737Z,76622.44
2022-10-13T13:41:13.395Z,76630.38
2022-10-13T13:43:40.595Z,76636.34
2022-10-13T13:46:14.482Z,76654.22
2022-10-13T13:48:41.048Z,76660.19
2022-10-13T13:51:09.634Z,76654.22
2022-10-13T13:53:37.746Z,76656.22
2022-10-13T13:56:05.086Z,76662.16
2022-10-13T13:58:31.784Z,76658.19
2022-10-13T14:00:59.953Z,76648.25
2022-10-13T14:03:26.515Z,76640.31
2022-10-13T14:05:53.042Z,76630.38
2022-10-13T14:08:21.588Z,76622.44
2022-10-13T14:10:48.184Z,76608.50
2022-10-13T14:13:14.802Z,76602.56
2022-10-13T14:15:41.293Z,76588.63
2022-10-13T14:18:07.887Z,76596.59
2022-10-13T14:20:34.361Z,76594.59
2022-10-13T14:23:00.904Z,76572.75
2022-10-13T14:25:27.355Z,76546.91
2022-10-13T14:27:53.856Z,76531.00
2022-10-13T14:30:20.443Z,76535.00
2022-10-13T14:32:46.929Z,76542.94
2022-10-13T14:35:13.513Z,76548.91
2022-10-13T14:37:40.207Z,76572.75
2022-10-13T14:40:07.245Z,76584.66
2022-10-13T14:42:33.850Z,76594.59
2022-10-13T14:45:00.524Z,76606.53
2022-10-13T14:47:27.875Z,76612.50
2022-10-13T14:49:54.403Z,76618.44
2022-10-13T14:52:20.960Z,76626.41
2022-10-13T14:54:47.634Z,76638.31
2022-10-13T14:57:16.056Z,76652.22
2022-10-13T14:59:43.287Z,76654.22
2022-10-13T15:02:13.887Z,76674.09
2022-10-13T15:04:41.435Z,76668.13
2022-10-13T15:07:08.356Z,76676.06
2022-10-13T15:09:52.162Z,76688.00
2022-10-13T15:12:19.427Z,76699.94
2022-10-13T15:14:46.129Z,76713.84
2022-10-13T15:17:15.712Z,76731.72
2022-10-13T15:19:42.336Z,76745.63
2022-10-13T15:22:08.794Z,76759.53
2022-10-13T15:24:36.364Z,76769.47
2022-10-13T15:27:02.872Z,76785.38
2022-10-13T15:29:29.440Z,76801.28
2022-10-13T15:32:08.252Z,76813.19
2022-10-13T15:34:34.942Z,76829.09
2022-10-13T15:37:01.427Z,76847.00
2022-10-13T15:39:28.161Z,76856.94
2022-10-13T15:41:54.845Z,76874.81
2022-10-13T15:44:27.676Z,76890.72
2022-10-13T15:49:42.544Z,76908.59
2022-10-13T15:51:55.416Z,76900.66
2022-10-13T15:52:10.158Z,76922.50
2022-10-13T15:54:43.634Z,76924.50
2022-10-13T15:57:14.660Z,76936.41
2022-10-13T15:59:56.664Z,76944.38
2022-10-13T16:05:11.851Z,76956.28
2022-10-13T16:07:40.126Z,76956.28
2022-10-13T16:10:09.343Z,76966.22
2022-10-13T16:12:36.528Z,76974.19
2022-10-13T16:15:03.180Z,76982.13
2022-10-13T16:17:29.894Z,76994.06
2022-10-13T16:19:56.570Z,77011.94
2022-10-13T16:22:23.858Z,77013.94
2022-10-13T16:24:50.314Z,77031.81
2022-10-13T16:27:40.428Z,77039.75
2022-10-13T16:30:09.987Z,77043.75
2022-10-13T16:32:40.222Z,77061.63
2022-10-13T16:35:07.677Z,77059.63
2022-10-13T16:37:34.153Z,77057.66
2022-10-13T16:40:00.725Z,77055.66
2022-10-13T16:42:27.403Z,77067.59
2022-10-13T16:44:54.912Z,77063.63
2022-10-13T16:47:21.662Z,77067.59
2022-10-13T16:49:48.452Z,77061.63
2022-10-13T16:52:14.969Z,77067.59
2022-10-13T16:54:43.607Z,77069.56
2022-10-13T16:57:11.219Z,77069.56
2022-10-13T16:59:38.805Z,77073.56
2022-10-13T17:02:05.233Z,77077.53
2022-10-13T17:04:32.779Z,77085.47
2022-10-13T17:07:02.809Z,77095.41
2022-10-13T17:09:30.413Z,77097.41
2022-10-13T17:11:56.887Z,77101.38
2022-10-13T17:14:24.361Z,77121.25
2022-10-13T17:16:54.193Z,77125.22
2022-10-13T17:19:23.960Z,77123.25
2022-10-13T17:21:50.451Z,77121.25
2022-10-13T17:24:17.305Z,77129.19
2022-10-13T17:26:43.889Z,77139.13
2022-10-13T17:29:10.667Z,77145.09
2022-10-13T17:31:38.259Z,77141.13
2022-10-13T17:34:06.191Z,77145.09
2022-10-13T17:36:34.274Z,77145.09
2022-10-13T17:39:06.851Z,77149.06
2022-10-13T17:41:33.732Z,77157.03
2022-10-13T17:44:00.303Z,77159.00
2022-10-13T17:46:38.709Z,77166.97
2022-10-13T17:49:11.287Z,77172.94
2022-10-13T17:51:38.536Z,77180.88
2022-10-13T17:54:05.613Z,77180.88
2022-10-13T17:56:32.700Z,77184.84
2022-10-13T17:59:00.547Z,77188.81
2022-10-13T18:01:29.730Z,77190.81
2022-10-13T18:03:58.585Z,77196.78
2022-10-13T18:06:25.832Z,77188.81
2022-10-13T18:08:52.436Z,77202.75
2022-10-13T18:11:22.727Z,77224.59
2022-10-13T18:13:49.793Z,77242.50
2022-10-13T18:16:23.871Z,77244.47
2022-10-13T18:18:53.076Z,77250.44
2022-10-13T18:21:28.053Z,77260.38
2022-10-13T18:23:56.595Z,77266.34
2022-10-13T18:26:24.246Z,77272.31
2022-10-13T18:28:52.155Z,77280.25
2022-10-13T18:31:22.236Z,77284.22
2022-10-13T18:33:49.615Z,77294.16
2022-10-13T18:36:23.656Z,77298.13
2022-10-13T18:38:51.020Z,77296.16
2022-10-13T18:43:51.656Z,77306.09
2022-10-13T18:46:18.874Z,77316.03
2022-10-13T18:48:45.446Z,77316.03
2022-10-13T18:51:14.833Z,77318.03
2022-10-13T18:53:43.510Z,77325.97
2022-10-13T18:56:15.257Z,77329.94
2022-10-13T18:58:41.989Z,77333.91
2022-10-13T19:01:13.910Z,77335.91
2022-10-13T19:03:45.771Z,77341.88
2022-10-13T19:06:14.360Z,77345.84
2022-10-13T19:08:46.035Z,77325.97
2022-10-13T19:11:20.537Z,77341.88
2022-10-13T19:13:48.156Z,77337.91
2022-10-13T19:16:17.321Z,77329.94
2022-10-13T19:18:44.298Z,77327.97
2022-10-13T19:21:11.898Z,77339.88
2022-10-13T19:23:39.225Z,77345.84
2022-10-13T19:26:13.949Z,77349.81
2022-10-13T19:28:41.822Z,77357.78
2022-10-13T19:31:17.128Z,77343.84
2022-10-13T19:33:47.039Z,77318.03
2022-10-13T19:36:25.724Z,77345.84
2022-10-13T19:38:52.569Z,77333.91
2022-10-13T19:41:19.231Z,77343.84
2022-10-13T19:43:45.894Z,77331.94
2022-10-13T19:46:12.738Z,77339.88
2022-10-13T19:48:39.409Z,77349.81
2022-10-13T19:51:08.094Z,77322.00
2022-10-13T19:53:36.526Z,77343.84
2022-10-13T19:56:03.956Z,77308.09
2022-10-13T19:58:30.545Z,77337.91
2022-10-13T20:01:03.424Z,77337.91
2022-10-13T20:03:30.030Z,77331.94
2022-10-13T20:05:56.508Z,77351.81
2022-10-13T20:08:23.047Z,77359.75
2022-10-13T20:10:51.259Z,77349.81
2022-10-13T20:13:18.184Z,77357.78
2022-10-13T20:15:44.768Z,77355.78
2022-10-13T20:18:13.129Z,77345.84
2022-10-13T20:20:42.193Z,77353.78
2022-10-13T20:23:09.369Z,77339.88
2022-10-13T20:25:38.955Z,77349.81
2022-10-13T20:28:07.157Z,77341.88
2022-10-13T20:30:39.450Z,77335.91
2022-10-13T20:33:08.775Z,77347.84
2022-10-13T20:35:36.390Z,77343.84
2022-10-13T20:38:02.863Z,77329.94
2022-10-13T20:40:29.327Z,77329.94
2022-10-13T20:42:55.729Z,77327.97
2022-10-13T20:45:22.422Z,77341.88
2022-10-13T20:47:49.464Z,77345.84
2022-10-13T20:50:16.041Z,77353.78
2022-10-13T20:52:42.569Z,77357.78
2022-10-13T20:55:09.440Z,77363.72
2022-10-13T20:57:53.331Z,77367.72
2022-10-13T21:00:19.959Z,77367.72
2022-10-13T21:02:47.549Z,77375.66
2022-10-13T21:05:14.872Z,77373.66
2022-10-13T21:07:42.187Z,77363.72
2022-10-13T21:10:09.082Z,77379.63
2022-10-13T21:12:35.549Z,77391.56
2022-10-13T21:15:02.032Z,77391.56
2022-10-13T21:17:29.917Z,77401.50
2022-10-13T21:19:56.493Z,77393.56
2022-10-13T21:22:22.939Z,77401.50
2022-10-13T21:24:49.428Z,77405.47
2022-10-13T21:27:15.905Z,77403.50
2022-10-13T21:29:42.472Z,77409.44
2022-10-13T21:32:09.037Z,77401.50
2022-10-13T21:34:35.544Z,77397.53
2022-10-13T21:37:02.038Z,77399.50
2022-10-13T21:39:28.525Z,77403.50
2022-10-13T21:41:55.021Z,77401.50
2022-10-13T21:44:21.654Z,77391.56
2022-10-13T21:46:48.173Z,77393.56
2022-10-13T21:49:14.636Z,77407.47
2022-10-13T21:51:41.418Z,77395.53
2022-10-13T21:54:12.808Z,77397.53
2022-10-13T21:56:40.595Z,77393.56
2022-10-13T21:59:08.047Z,77409.44
2022-10-13T22:01:34.892Z,77399.50
2022-10-13T22:04:02.625Z,77415.41
2022-10-13T22:06:32.136Z,77411.44
2022-10-13T22:09:00.716Z,77423.38
2022-10-13T22:11:29.814Z,77417.41
2022-10-13T22:13:57.518Z,77433.31
2022-10-13T22:16:30.877Z,77425.34
2022-10-13T22:18:57.856Z,77419.38
2022-10-13T22:21:30.284Z,77429.31
2022-10-13T22:23:59.259Z,77435.28
2022-10-13T22:26:28.099Z,77429.31
2022-10-13T22:28:54.956Z,77407.47
2022-10-13T22:31:21.600Z,77425.34
2022-10-13T22:33:53.760Z,77413.44
2022-10-13T22:36:25.249Z,77417.41
2022-10-13T22:38:53.960Z,77417.41
2022-10-13T22:41:20.861Z,77425.34
2022-10-13T22:43:56.214Z,77419.38
2022-10-13T22:46:26.495Z,77421.38
2022-10-13T22:48:53.782Z,77447.22
2022-10-13T22:51:22.293Z,77459.13
2022-10-13T22:53:49.828Z,77425.34
2022-10-13T22:56:25.073Z,77455.16
2022-10-13T22:59:00.250Z,77455.16
2022-10-13T23:01:27.048Z,77479.03
2022-10-13T23:03:56.350Z,77443.25
2022-10-13T23:06:25.544Z,77467.09
2022-10-13T23:08:52.568Z,77484.97
2022-10-13T23:11:19.604Z,77492.94
2022-10-13T23:13:46.133Z,77488.97
2022-10-13T23:16:15.836Z,77488.97
2022-10-13T23:18:43.365Z,77496.91
2022-10-13T23:21:16.146Z,77498.91
2022-10-13T23:23:43.285Z,77512.81
2022-10-13T23:26:13.079Z,77512.81
2022-10-13T23:28:40.800Z,77508.84
2022-10-13T23:31:11.782Z,77510.81
2022-10-13T23:33:38.248Z,77520.75
2022-10-13T23:36:05.812Z,77522.75
2022-10-13T23:38:33.187Z,77524.72
2022-10-13T23:41:08.665Z,77528.72
2022-10-13T23:43:35.934Z,77532.69
2022-10-13T23:46:02.804Z,77524.72
2022-10-13T23:48:29.411Z,77528.72
2022-10-13T23:50:56.000Z,77530.69
2022-10-13T23:53:22.745Z,77530.69
2022-10-13T23:55:49.251Z,77544.63
2022-10-13T23:58:15.858Z,77556.53
